createdAt,value
2023-11-27T00:00:48.312Z,96990.59
2023-11-27T00:03:15.075Z,97001.47
2023-11-27T00:05:41.748Z,96995.69
2023-11-27T00:08:09.706Z,97002.31
2023-11-27T00:10:37.612Z,96988.13
2023-11-27T00:13:04.255Z,96989.81
2023-11-27T00:15:31.030Z,97007.38
2023-11-27T00:17:57.733Z,96984.03
2023-11-27T00:20:24.497Z,96991.44
2023-11-27T00:22:51.201Z,96999.00
2023-11-27T00:25:17.975Z,96991.56
2023-11-27T00:27:44.787Z,96979.91
2023-11-27T00:30:12.256Z,96978.16
2023-11-27T00:32:39.118Z,96981.44
2023-11-27T00:35:07.439Z,96982.31
2023-11-27T00:37:34.253Z,96983.16
2023-11-27T00:40:01.328Z,96979.91
2023-11-27T00:42:28.055Z,96975.59
2023-11-27T00:44:54.988Z,96981.44
2023-11-27T00:47:21.699Z,96996.56
2023-11-27T00:49:48.418Z,96984.75
2023-11-27T00:52:15.121Z,96974.78
2023-11-27T00:54:41.889Z,96978.97
2023-11-27T00:57:09.203Z,96989.81
2023-11-27T00:59:42.053Z,96984.88
2023-11-27T01:02:09.109Z,96983.13
2023-11-27T01:04:39.580Z,96983.88
2023-11-27T01:07:06.647Z,96977.16
2023-11-27T01:09:34.327Z,96988.81
2023-11-27T01:12:01.065Z,96992.88
2023-11-27T01:14:28.166Z,96998.13
2023-11-27T01:16:54.867Z,96983.09
2023-11-27T01:19:21.758Z,97011.50
2023-11-27T01:21:48.506Z,96985.53
2023-11-27T01:24:15.644Z,96988.09
2023-11-27T01:26:42.293Z,96978.91
2023-11-27T01:29:09.030Z,96993.16
2023-11-27T01:31:35.707Z,97013.22
2023-11-27T01:34:02.499Z,96999.69
2023-11-27T01:36:29.280Z,96999.69
2023-11-27T01:38:55.947Z,96988.88
2023-11-27T01:41:22.721Z,97004.69
2023-11-27T01:43:49.509Z,96988.94
2023-11-27T01:46:23.136Z,96989.78
2023-11-27T01:48:52.459Z,97008.94
2023-11-27T01:51:19.418Z,96984.66
2023-11-27T01:53:48.137Z,96990.53
2023-11-27T01:56:15.490Z,96977.06
2023-11-27T01:58:42.254Z,96980.38
2023-11-27T02:01:09.608Z,96978.72
2023-11-27T02:03:36.427Z,96988.75
2023-11-27T02:06:03.134Z,96979.44
2023-11-27T02:08:29.958Z,96981.94
2023-11-27T02:10:56.766Z,96991.16
2023-11-27T02:13:23.554Z,96981.13
2023-11-27T02:15:50.310Z,96987.78
2023-11-27T02:18:17.016Z,96973.38
2023-11-27T02:20:43.772Z,96994.38
2023-11-27T02:23:18.028Z,96989.28
2023-11-27T02:25:45.308Z,96987.66
2023-11-27T02:28:12.282Z,96985.88
2023-11-27T02:30:39.015Z,96994.22
2023-11-27T02:33:05.714Z,96995.06
2023-11-27T02:35:35.387Z,96990.16
2023-11-27T02:38:03.387Z,96983.47
2023-11-27T02:40:31.565Z,96977.66
2023-11-27T02:42:58.473Z,96991.00
2023-11-27T02:45:25.321Z,96993.44
2023-11-27T02:47:52.750Z,97002.72
2023-11-27T02:50:23.980Z,97013.53
2023-11-27T02:52:51.195Z,97000.19
2023-11-27T02:55:21.071Z,97006.88
2023-11-27T02:57:47.861Z,97011.13
2023-11-27T03:00:16.507Z,97001.13
2023-11-27T03:02:46.522Z,97014.38
2023-11-27T03:05:13.891Z,97009.25
2023-11-27T03:07:41.223Z,97000.03
2023-11-27T03:10:10.090Z,97035.94
2023-11-27T03:12:38.096Z,97000.91
2023-11-27T03:15:07.021Z,97004.03
2023-11-27T03:17:34.295Z,97006.78
2023-11-27T03:20:01.121Z,97019.25
2023-11-27T03:22:27.918Z,97013.41
2023-11-27T03:24:54.721Z,97011.75
2023-11-27T03:27:21.430Z,97023.28
2023-11-27T03:29:48.171Z,97018.47
2023-11-27T03:32:15.750Z,97023.47
2023-11-27T03:34:44.622Z,97020.16
2023-11-27T03:37:11.575Z,97021.88
2023-11-27T03:39:38.246Z,97036.13
2023-11-27T03:42:04.993Z,97027.66
2023-11-27T03:44:31.760Z,97031.88
2023-11-27T03:46:58.564Z,97030.16
2023-11-27T03:49:25.333Z,97034.28
2023-11-27T03:51:52.147Z,97041.81
2023-11-27T03:54:18.861Z,97056.03
2023-11-27T03:56:45.572Z,97057.53
2023-11-27T03:59:12.436Z,97054.03
2023-11-27T04:01:39.240Z,97069.84
2023-11-27T04:04:06.878Z,97056.69
2023-11-27T04:06:34.362Z,97049.00
2023-11-27T04:09:01.083Z,97059.13
2023-11-27T04:11:28.515Z,97061.50
2023-11-27T04:14:01.747Z,97077.59
2023-11-27T04:16:28.461Z,97066.50
2023-11-27T04:18:55.187Z,97078.22
2023-11-27T04:21:22.004Z,97072.44
2023-11-27T04:23:49.751Z,97086.66
2023-11-27T04:26:17.391Z,97083.44
2023-11-27T04:28:44.465Z,97085.03
2023-11-27T04:31:11.346Z,97086.59
2023-11-27T04:33:38.161Z,97083.28
2023-11-27T04:36:05.517Z,97098.22
2023-11-27T04:38:32.379Z,97084.00
2023-11-27T04:40:59.094Z,97095.59
2023-11-27T04:43:26.893Z,97098.22
2023-11-27T04:45:53.730Z,97075.69
2023-11-27T04:48:23.204Z,97095.72
2023-11-27T04:50:50.176Z,97092.28
2023-11-27T04:53:17.300Z,97094.81
2023-11-27T04:55:44.011Z,97099.78
2023-11-27T04:58:10.802Z,97087.28
2023-11-27T05:00:37.902Z,97087.22
2023-11-27T05:03:04.609Z,97120.50
2023-11-27T05:05:31.370Z,97093.00
2023-11-27T05:07:58.115Z,97091.25
2023-11-27T05:10:24.949Z,97099.63
2023-11-27T05:12:52.123Z,97097.00
2023-11-27T05:15:18.849Z,97099.47
2023-11-27T05:17:46.949Z,97103.81
2023-11-27T05:20:13.692Z,97125.56
2023-11-27T05:22:40.401Z,97117.91
2023-11-27T05:25:07.548Z,97118.97
2023-11-27T05:27:34.602Z,97123.06
2023-11-27T05:30:01.276Z,97127.28
2023-11-27T05:32:28.241Z,97130.75
2023-11-27T05:34:54.992Z,97142.38
2023-11-27T05:37:21.731Z,97130.78
2023-11-27T05:39:48.454Z,97147.50
2023-11-27T05:42:15.232Z,97140.91
2023-11-27T05:44:42.057Z,97146.81
2023-11-27T05:47:09.565Z,97137.56
2023-11-27T05:49:36.430Z,97136.75
2023-11-27T05:52:04.465Z,97139.25
2023-11-27T05:54:31.278Z,97139.19
2023-11-27T05:56:57.973Z,97176.09
2023-11-27T05:59:24.675Z,97176.81
2023-11-27T06:01:52.602Z,97148.47
2023-11-27T06:04:19.384Z,97156.06
2023-11-27T06:06:46.084Z,97142.72
2023-11-27T06:09:12.776Z,97154.47
2023-11-27T06:11:39.540Z,97159.44
2023-11-27T06:14:06.293Z,97162.91
2023-11-27T06:16:33.254Z,97166.16
2023-11-27T06:19:00.194Z,97177.00
2023-11-27T06:21:26.941Z,97167.88
2023-11-27T06:23:53.707Z,97167.91
2023-11-27T06:26:20.395Z,97173.06
2023-11-27T06:28:47.066Z,97155.53
2023-11-27T06:31:13.869Z,97189.75
2023-11-27T06:33:40.790Z,97169.69
2023-11-27T06:36:08.026Z,97176.28
2023-11-27T06:38:36.419Z,97179.69
2023-11-27T06:41:03.283Z,97193.94
2023-11-27T06:43:30.105Z,97183.84
2023-11-27T06:45:57.286Z,97183.09
2023-11-27T06:48:24.269Z,97177.19
2023-11-27T06:50:50.999Z,97186.41
2023-11-27T06:53:18.644Z,97188.06
2023-11-27T06:55:45.358Z,97186.41
2023-11-27T06:58:12.102Z,97193.00
2023-11-27T07:00:39.734Z,97199.63
2023-11-27T07:03:07.102Z,97194.72
2023-11-27T07:05:33.924Z,97197.06
2023-11-27T07:08:00.709Z,97209.81
2023-11-27T07:10:30.347Z,97208.03
2023-11-27T07:12:57.578Z,97201.34
2023-11-27T07:15:24.295Z,97197.13
2023-11-27T07:17:51.129Z,97192.97
2023-11-27T07:20:20.899Z,97212.09
2023-11-27T07:22:48.111Z,97214.78
2023-11-27T07:25:16.865Z,97206.38
2023-11-27T07:27:50.380Z,97205.50
2023-11-27T07:30:17.738Z,97203.78
2023-11-27T07:32:45.688Z,97207.97
2023-11-27T07:35:12.828Z,97207.84
2023-11-27T07:37:40.062Z,97206.44
2023-11-27T07:40:16.190Z,97214.78
2023-11-27T07:42:44.337Z,97203.03
2023-11-27T07:45:11.334Z,97216.41
2023-11-27T07:47:38.040Z,97211.56
2023-11-27T07:50:07.740Z,97214.16
2023-11-27T07:52:34.763Z,97218.47
2023-11-27T07:55:02.043Z,97217.00
2023-11-27T07:57:29.450Z,97233.19
2023-11-27T07:59:56.484Z,97233.94
2023-11-27T08:02:23.187Z,97233.97
2023-11-27T08:04:50.028Z,97228.16
2023-11-27T08:07:17.672Z,97243.28
2023-11-27T08:09:47.847Z,97251.56
2023-11-27T08:12:15.561Z,97253.19
2023-11-27T08:14:42.256Z,97242.16
2023-11-27T08:17:09.334Z,97250.38
2023-11-27T08:19:36.188Z,97255.59
2023-11-27T08:22:05.124Z,97257.25
2023-11-27T08:24:37.682Z,97250.69
2023-11-27T08:27:05.296Z,97250.03
2023-11-27T08:29:32.130Z,97257.59
2023-11-27T08:32:01.115Z,97269.44
2023-11-27T08:34:31.574Z,97248.28
2023-11-27T08:37:01.128Z,97268.19
2023-11-27T08:39:27.945Z,97257.97
2023-11-27T08:41:54.654Z,97270.63
2023-11-27T08:44:21.686Z,97274.75
2023-11-27T08:46:48.659Z,97282.19
2023-11-27T08:49:16.162Z,97277.13
2023-11-27T08:51:46.619Z,97279.75
2023-11-27T08:54:13.355Z,97282.03
2023-11-27T08:56:42.618Z,97304.31
2023-11-27T08:59:09.854Z,97291.75
2023-11-27T09:01:37.693Z,97266.69
2023-11-27T09:04:05.220Z,97282.34
2023-11-27T09:06:32.109Z,97288.31
2023-11-27T09:09:00.872Z,97269.91
2023-11-27T09:11:30.085Z,97268.16
2023-11-27T09:13:58.430Z,97283.31
2023-11-27T09:16:25.640Z,97274.13
2023-11-27T09:18:52.374Z,97281.81
2023-11-27T09:21:19.493Z,97295.25
2023-11-27T09:23:46.296Z,97272.75
2023-11-27T09:26:15.108Z,97273.53
2023-11-27T09:28:43.224Z,97285.13
2023-11-27T09:31:10.107Z,97288.59
2023-11-27T09:33:36.828Z,97278.72
2023-11-27T09:36:05.481Z,97286.19
2023-11-27T09:38:33.532Z,97282.03
2023-11-27T09:41:00.993Z,97278.09
2023-11-27T09:43:31.128Z,97300.69
2023-11-27T09:45:58.944Z,97289.72
2023-11-27T09:48:27.226Z,97275.63
2023-11-27T09:50:59.378Z,97299.13
2023-11-27T09:53:30.909Z,97301.69
2023-11-27T09:55:59.390Z,97295.38
2023-11-27T09:58:26.243Z,97301.34
2023-11-27T10:00:56.195Z,97309.59
2023-11-27T10:03:26.365Z,97299.81
2023-11-27T10:05:55.444Z,97296.72
2023-11-27T10:08:22.104Z,97305.13
2023-11-27T10:10:49.847Z,97257.34
2023-11-27T10:13:31.475Z,97298.53
2023-11-27T10:16:10.536Z,97289.56
2023-11-27T10:18:37.418Z,97298.94
2023-11-27T10:21:15.599Z,97301.50
2023-11-27T10:23:42.651Z,97312.47
2023-11-27T10:26:09.334Z,97305.16
2023-11-27T10:28:49.819Z,97324.53
2023-11-27T10:31:16.874Z,97304.50
2023-11-27T10:33:44.204Z,97302.34
2023-11-27T10:36:12.446Z,97310.19
2023-11-27T10:38:39.862Z,97319.41
2023-11-27T10:41:08.438Z,97348.59
2023-11-27T10:43:37.651Z,97350.66
2023-11-27T10:46:08.861Z,97355.66
2023-11-27T10:48:43.789Z,97332.31
2023-11-27T10:51:15.928Z,97325.44
2023-11-27T10:53:50.581Z,97338.22
2023-11-27T10:56:20.510Z,97338.22
2023-11-27T10:58:49.296Z,97317.31
2023-11-27T11:01:20.576Z,97321.59
2023-11-27T11:03:53.642Z,97345.22
2023-11-27T11:06:22.194Z,97338.72
2023-11-27T11:08:51.017Z,97345.03
2023-11-27T11:11:19.315Z,97332.84
2023-11-27T11:13:47.287Z,97371.44
2023-11-27T11:16:26.453Z,97361.81
2023-11-27T11:18:55.043Z,97356.50
2023-11-27T11:21:58.808Z,97343.53
2023-11-27T11:24:57.012Z,97343.63
2023-11-27T11:27:40.518Z,97350.03
2023-11-27T11:30:13.967Z,97364.16
2023-11-27T11:32:41.807Z,97378.16
2023-11-27T11:35:12.537Z,97360.44
2023-11-27T11:37:50.770Z,97375.50
2023-11-27T11:40:19.044Z,97385.81
2023-11-27T11:42:46.382Z,97375.59
2023-11-27T11:45:39.950Z,97376.38
2023-11-27T11:48:14.219Z,97379.59
2023-11-27T11:50:44.605Z,97406.72
2023-11-27T11:53:23.477Z,97407.84
2023-11-27T11:55:54.759Z,97398.97
2023-11-27T11:58:21.484Z,97409.19
2023-11-27T12:00:49.380Z,97402.59
2023-11-27T12:03:23.884Z,97406.63
2023-11-27T12:05:56.709Z,97418.44
2023-11-27T12:08:28.051Z,97401.50
2023-11-27T12:10:55.856Z,97408.13
2023-11-27T12:13:35.163Z,97398.75
2023-11-27T12:16:14.736Z,97407.28
2023-11-27T12:18:51.086Z,97412.44
2023-11-27T12:21:24.092Z,97426.97
2023-11-27T12:23:52.338Z,97434.72
2023-11-27T12:26:24.597Z,97436.59
2023-11-27T12:28:52.098Z,97447.38
2023-11-27T12:31:19.817Z,97461.56
2023-11-27T12:33:50.518Z,97455.06
2023-11-27T12:36:23.709Z,97454.41
2023-11-27T12:38:56.252Z,97458.50
2023-11-27T12:41:35.701Z,97467.66
2023-11-27T12:44:09.303Z,97468.56
2023-11-27T12:46:36.324Z,97467.84
2023-11-27T12:49:05.981Z,97476.50
2023-11-27T12:51:39.270Z,97482.31
2023-11-27T12:54:06.115Z,97479.38
2023-11-27T12:56:33.378Z,97486.34
2023-11-27T12:59:01.924Z,97493.81
2023-11-27T13:01:28.910Z,97495.13
2023-11-27T13:03:56.061Z,97512.41
2023-11-27T13:06:28.829Z,97504.59
2023-11-27T13:08:55.812Z,97505.09
2023-11-27T13:11:32.848Z,97518.06
2023-11-27T13:14:08.874Z,97522.72
2023-11-27T13:16:37.016Z,97517.31
2023-11-27T13:19:04.774Z,97535.22
2023-11-27T13:21:33.764Z,97530.81
2023-11-27T13:24:01.079Z,97532.28
2023-11-27T13:26:29.792Z,97532.13
2023-11-27T13:28:56.765Z,97536.72
2023-11-27T13:31:28.112Z,97541.72
2023-11-27T13:33:56.352Z,97537.69
2023-11-27T13:36:23.882Z,97540.94
2023-11-27T13:38:51.909Z,97539.25
2023-11-27T13:41:18.863Z,97559.94
2023-11-27T13:43:48.984Z,97541.44
2023-11-27T13:46:16.037Z,97550.19
2023-11-27T13:48:42.848Z,97560.59
2023-11-27T13:51:15.716Z,97549.38
2023-11-27T13:53:43.484Z,97559.28
2023-11-27T13:56:10.657Z,97566.53
2023-11-27T13:58:40.883Z,97558.78
2023-11-27T14:01:13.874Z,97576.09
2023-11-27T14:03:43.419Z,97571.47
2023-11-27T14:06:24.893Z,97597.34
2023-11-27T14:09:04.922Z,97590.81
2023-11-27T14:11:35.213Z,97602.25
2023-11-27T14:14:10.343Z,97590.47
2023-11-27T14:16:45.634Z,97594.41
2023-11-27T14:19:13.582Z,97603.56
2023-11-27T14:21:41.392Z,97588.38
2023-11-27T14:24:15.984Z,97605.97
2023-11-27T14:26:52.574Z,97604.22
2023-11-27T14:29:22.720Z,97610.78
2023-11-27T14:31:52.990Z,97617.53
2023-11-27T14:34:26.060Z,97615.16
2023-11-27T14:36:53.483Z,97614.19
2023-11-27T14:39:22.444Z,97636.56
2023-11-27T14:41:56.246Z,97641.44
2023-11-27T14:44:24.822Z,97644.63
2023-11-27T14:46:54.689Z,97649.91
2023-11-27T14:49:30.130Z,97655.63
2023-11-27T14:52:05.036Z,97663.81
2023-11-27T14:54:32.648Z,97664.44
2023-11-27T14:57:01.353Z,97666.00
2023-11-27T14:59:28.194Z,97677.50
2023-11-27T15:01:55.209Z,97683.19
2023-11-27T15:04:22.508Z,97696.22
2023-11-27T15:06:52.362Z,97706.22
2023-11-27T15:09:23.430Z,97698.59
2023-11-27T15:11:52.139Z,97704.38
2023-11-27T15:14:20.423Z,97714.25
2023-11-27T15:16:49.185Z,97711.66
2023-11-27T15:19:16.320Z,97708.25
2023-11-27T15:21:43.786Z,97711.28
2023-11-27T15:24:13.230Z,97709.56
2023-11-27T15:26:40.807Z,97712.72
2023-11-27T15:29:09.494Z,97745.84
2023-11-27T15:31:36.824Z,97733.84
2023-11-27T15:34:10.070Z,97752.16
2023-11-27T15:36:37.602Z,97749.41
2023-11-27T15:39:24.419Z,97743.97
2023-11-27T15:41:52.188Z,97770.00
2023-11-27T15:44:19.336Z,97744.41
2023-11-27T15:46:46.854Z,97756.13
2023-11-27T15:49:13.692Z,97773.44
2023-11-27T15:51:42.779Z,97770.09
2023-11-27T15:54:10.076Z,97775.09
2023-11-27T15:56:37.365Z,97760.72
2023-11-27T15:59:05.123Z,97776.59
2023-11-27T16:01:32.250Z,97771.81
2023-11-27T16:03:59.256Z,97779.16
2023-11-27T16:06:26.132Z,97793.91
2023-11-27T16:08:52.877Z,97785.34
2023-11-27T16:11:23.859Z,97794.41
2023-11-27T16:13:56.471Z,97798.84
2023-11-27T16:16:26.101Z,97792.06
2023-11-27T16:18:54.604Z,97781.34
2023-11-27T16:21:21.385Z,97803.78
2023-11-27T16:23:48.850Z,97801.91
2023-11-27T16:26:15.851Z,97789.47
2023-11-27T16:28:46.120Z,97800.19
2023-11-27T16:31:13.611Z,97791.91
2023-11-27T16:33:41.684Z,97809.13
2023-11-27T16:36:09.047Z,97802.56
2023-11-27T16:38:35.994Z,97792.59
2023-11-27T16:41:02.693Z,97811.75
2023-11-27T16:43:29.465Z,97801.50
2023-11-27T16:45:59.748Z,97800.75
2023-11-27T16:48:29.575Z,97819.06
2023-11-27T16:50:56.905Z,97813.34
2023-11-27T16:53:27.032Z,97824.75
2023-11-27T16:55:57.456Z,97821.50
2023-11-27T16:58:24.241Z,97833.84
2023-11-27T17:00:50.956Z,97846.72
2023-11-27T17:03:18.686Z,97836.78
2023-11-27T17:05:47.466Z,97827.34
2023-11-27T17:08:17.495Z,97839.66
2023-11-27T17:10:51.630Z,97837.91
2023-11-27T17:13:18.469Z,97832.16
2023-11-27T17:15:46.519Z,97837.91
2023-11-27T17:18:14.360Z,97848.50
2023-11-27T17:20:42.790Z,97870.00
2023-11-27T17:23:11.546Z,97837.47
2023-11-27T17:25:39.766Z,97833.91
2023-11-27T17:28:08.315Z,97839.19
2023-11-27T17:30:36.410Z,97857.31
2023-11-27T17:33:04.653Z,97855.63
2023-11-27T17:35:31.925Z,97842.31
2023-11-27T17:37:59.353Z,97847.16
2023-11-27T17:40:27.506Z,97853.13
2023-11-27T17:42:54.338Z,97845.94
2023-11-27T17:45:25.900Z,97863.13
2023-11-27T17:47:53.167Z,97861.25
2023-11-27T17:50:23.275Z,97850.94
2023-11-27T17:52:51.776Z,97862.06
2023-11-27T17:55:23.923Z,97869.44
2023-11-27T17:57:52.082Z,97865.69
2023-11-27T18:00:21.325Z,97865.06
2023-11-27T18:02:53.853Z,97868.81
2023-11-27T18:05:24.760Z,97885.47
2023-11-27T18:07:57.934Z,97877.19
2023-11-27T18:10:25.446Z,97895.47
2023-11-27T18:12:56.213Z,97878.06
2023-11-27T18:15:23.338Z,97869.56
2023-11-27T18:17:51.935Z,97898.78
2023-11-27T18:20:20.494Z,97877.81
2023-11-27T18:22:52.221Z,97880.19
2023-11-27T18:25:19.957Z,97897.59
2023-11-27T18:27:47.359Z,97893.72
2023-11-27T18:30:15.286Z,97904.47
2023-11-27T18:32:43.123Z,97897.75
2023-11-27T18:35:11.703Z,97912.69
2023-11-27T18:37:41.271Z,97929.47
2023-11-27T18:40:12.184Z,97921.44
2023-11-27T18:42:42.282Z,97923.78
2023-11-27T18:45:11.475Z,97926.91
2023-11-27T18:47:40.625Z,97921.13
2023-11-27T18:50:08.720Z,97919.25
2023-11-27T18:52:36.100Z,97929.72
2023-11-27T18:55:02.989Z,97929.41
2023-11-27T18:57:29.757Z,97915.81
2023-11-27T18:59:56.509Z,97925.81
2023-11-27T19:02:23.347Z,97930.66
2023-11-27T19:04:50.537Z,97922.22
2023-11-27T19:07:18.755Z,97930.81
2023-11-27T19:09:45.559Z,97932.91
2023-11-27T19:12:14.739Z,97937.22
2023-11-27T19:14:43.382Z,97948.22
2023-11-27T19:17:11.061Z,97930.81
2023-11-27T19:19:38.582Z,97939.09
2023-11-27T19:22:06.807Z,97932.44
2023-11-27T19:24:34.556Z,97935.66
2023-11-27T19:27:04.668Z,97942.38
2023-11-27T19:29:31.690Z,97939.09
2023-11-27T19:31:58.510Z,97935.03
2023-11-27T19:34:25.356Z,97943.91
2023-11-27T19:36:54.123Z,97945.16
2023-11-27T19:39:21.817Z,97941.75
2023-11-27T19:41:53.010Z,97953.38
2023-11-27T19:44:21.288Z,97938.28
2023-11-27T19:46:49.492Z,97950.72
2023-11-27T19:49:17.755Z,97948.28
2023-11-27T19:51:44.512Z,97951.56
2023-11-27T19:54:16.552Z,97955.00
2023-11-27T19:56:43.391Z,97965.53
2023-11-27T19:59:10.135Z,97959.31
2023-11-27T20:01:37.095Z,97967.75
2023-11-27T20:04:04.354Z,97975.09
2023-11-27T20:06:31.086Z,97965.16
2023-11-27T20:08:57.820Z,97954.00
2023-11-27T20:11:24.559Z,97962.72
2023-11-27T20:13:51.499Z,97972.13
2023-11-27T20:16:18.322Z,97973.13
2023-11-27T20:18:45.300Z,97974.75
2023-11-27T20:21:11.984Z,97980.94
2023-11-27T20:23:40.193Z,97982.75
2023-11-27T20:26:07.238Z,97979.22
2023-11-27T20:28:34.161Z,97997.81
2023-11-27T20:31:00.922Z,98000.16
2023-11-27T20:33:41.268Z,97997.59
2023-11-27T20:36:08.487Z,97989.84
2023-11-27T20:38:35.513Z,97987.50
2023-11-27T20:41:04.079Z,97995.31
2023-11-27T20:43:31.856Z,97993.00
2023-11-27T20:45:58.620Z,97994.41
2023-11-27T20:48:28.429Z,97995.38
2023-11-27T20:50:55.190Z,97999.47
2023-11-27T20:53:22.172Z,98007.19
2023-11-27T20:55:48.940Z,98007.03
2023-11-27T20:58:19.691Z,98004.09
2023-11-27T21:00:49.692Z,97998.28
2023-11-27T21:03:17.138Z,98004.63
2023-11-27T21:05:47.020Z,98013.88
2023-11-27T21:08:13.917Z,98015.13
2023-11-27T21:10:41.039Z,98030.91
2023-11-27T21:13:08.732Z,98034.84
2023-11-27T21:15:35.700Z,98028.66
2023-11-27T21:18:04.007Z,98024.03
2023-11-27T21:20:30.910Z,98023.06
2023-11-27T21:22:58.315Z,98025.78
2023-11-27T21:25:25.159Z,98032.28
2023-11-27T21:27:51.916Z,98026.84
2023-11-27T21:30:19.253Z,98031.13
2023-11-27T21:32:50.224Z,98035.19
2023-11-27T21:35:18.158Z,98028.91
2023-11-27T21:37:45.866Z,98039.50
2023-11-27T21:40:12.967Z,98039.06
2023-11-27T21:42:41.887Z,98054.53
2023-11-27T21:45:10.114Z,98052.56
2023-11-27T21:47:38.388Z,98043.50
2023-11-27T21:50:07.832Z,98050.22
2023-11-27T21:52:34.877Z,98045.81
2023-11-27T21:55:01.689Z,98036.44
2023-11-27T21:57:28.416Z,98040.84
2023-11-27T21:59:55.243Z,98040.47
2023-11-27T22:02:23.363Z,98051.81
2023-11-27T22:04:51.208Z,98049.97
2023-11-27T22:07:18.818Z,98046.56
2023-11-27T22:09:52.918Z,98052.41
2023-11-27T22:12:20.230Z,98044.72
2023-11-27T22:14:46.987Z,98044.84
2023-11-27T22:17:16.923Z,98043.94
2023-11-27T22:19:43.690Z,98050.31
2023-11-27T22:22:10.574Z,98052.03
2023-11-27T22:24:37.262Z,98058.38
2023-11-27T22:27:04.460Z,98056.47
2023-11-27T22:29:31.220Z,98052.16
2023-11-27T22:31:58.207Z,98047.47
2023-11-27T22:34:25.298Z,98047.16
2023-11-27T22:36:52.160Z,98050.81
2023-11-27T22:39:19.527Z,98051.31
2023-11-27T22:41:46.928Z,98055.34
2023-11-27T22:44:14.163Z,98055.34
2023-11-27T22:46:41.508Z,98065.22
2023-11-27T22:49:09.782Z,98051.63
2023-11-27T22:51:37.149Z,98054.38
2023-11-27T22:54:04.157Z,98062.81
2023-11-27T22:56:31.493Z,98066.00
2023-11-27T22:59:07.347Z,98075.88
2023-11-27T23:01:41.758Z,98075.88
2023-11-27T23:04:08.773Z,98071.75
2023-11-27T23:06:38.443Z,98065.47
2023-11-27T23:09:10.482Z,98068.56
2023-11-27T23:11:37.126Z,98065.91
2023-11-27T23:14:04.227Z,98068.28
2023-11-27T23:16:30.993Z,98072.41
2023-11-27T23:18:57.722Z,98075.03
2023-11-27T23:21:24.990Z,98083.25
2023-11-27T23:23:51.740Z,98080.69
2023-11-27T23:26:18.536Z,98079.03
2023-11-27T23:28:45.251Z,98088.47
2023-11-27T23:31:12.103Z,98076.16
2023-11-27T23:33:38.812Z,98077.91
2023-11-27T23:36:07.356Z,98088.34
2023-11-27T23:38:34.512Z,98089.91
2023-11-27T23:41:01.504Z,98074.56
2023-11-27T23:43:28.299Z,98084.53
2023-11-27T23:45:55.065Z,98080.47
2023-11-27T23:48:21.874Z,98085.06
2023-11-27T23:50:48.692Z,98077.22
2023-11-27T23:53:15.452Z,98081.72
2023-11-27T23:55:42.249Z,98082.31
2023-11-27T23:58:08.959Z,98090.06
